createdAt,value
2023-03-23T15:58:14.894Z,1.58
2023-03-23T16:01:08.630Z,1.73
2023-03-23T16:04:04.723Z,1.70
2023-03-23T16:06:55.950Z,2.03
2023-03-23T16:09:44.699Z,2.00
2023-03-23T16:12:32.275Z,1.60
2023-03-23T16:15:20.624Z,1.90
2023-03-23T16:18:10.886Z,1.70
2023-03-23T16:20:58.456Z,2.13
2023-03-23T16:23:46.556Z,2.30
2023-03-23T16:26:37.728Z,4.68
2023-03-23T16:29:46.687Z,2.03
2023-03-23T16:35:21.116Z,1.80
2023-03-23T16:38:16.382Z,1.83
2023-03-23T16:41:03.993Z,1.80
2023-03-23T16:43:52.256Z,1.95
2023-03-23T16:46:39.740Z,2.20
2023-03-23T16:49:27.487Z,2.22
2023-03-23T16:52:15.036Z,1.80
2023-03-23T16:55:02.587Z,1.77
2023-03-23T16:57:50.368Z,1.83
2023-03-23T17:00:38.942Z,1.70
2023-03-23T17:03:26.735Z,2.05
2023-03-23T17:06:14.626Z,1.60
2023-03-23T17:09:02.240Z,1.75
2023-03-23T17:11:49.875Z,2.03
2023-03-23T17:14:40.272Z,1.58
2023-03-23T17:17:30.861Z,1.55
2023-03-23T17:20:19.549Z,1.30
2023-03-23T17:23:07.695Z,2.00
2023-03-23T17:25:55.909Z,2.38
2023-03-23T17:28:43.654Z,2.28
2023-03-23T17:31:31.312Z,1.92
2023-03-23T17:34:19.833Z,1.80
2023-03-23T17:37:07.997Z,1.85
2023-03-23T17:39:55.570Z,1.80
2023-03-23T17:42:43.092Z,1.90
2023-03-23T17:45:30.821Z,2.28
2023-03-23T17:48:18.447Z,1.73
2023-03-23T17:51:09.172Z,2.38
2023-03-23T17:53:58.549Z,2.20
2023-03-23T17:56:46.223Z,2.28
2023-03-23T17:59:33.780Z,2.10
2023-03-23T18:02:21.560Z,1.73
2023-03-23T18:05:09.927Z,2.30
2023-03-23T18:07:57.407Z,2.35
2023-03-23T18:10:45.331Z,2.97
2023-03-23T18:13:36.219Z,3.70
2023-03-23T18:16:23.964Z,2.53
2023-03-23T18:19:11.454Z,2.90
2023-03-23T18:22:01.536Z,2.63
2023-03-23T18:24:49.004Z,2.60
2023-03-23T18:27:36.601Z,2.67
2023-03-23T18:30:26.959Z,3.47
2023-03-23T18:33:20.207Z,2.72
2023-03-23T18:36:09.530Z,3.08
2023-03-23T18:38:58.137Z,2.95
2023-03-23T18:41:45.720Z,3.25
2023-03-23T18:44:33.833Z,3.03
2023-03-23T18:47:21.630Z,3.03
2023-03-23T18:50:11.075Z,2.73
2023-03-23T18:52:58.744Z,2.90
2023-03-23T18:55:47.924Z,3.40
2023-03-23T18:58:36.578Z,3.35
2023-03-23T19:01:24.141Z,2.67
2023-03-23T19:04:13.638Z,2.80
2023-03-23T19:07:02.424Z,2.95
2023-03-23T19:09:50.035Z,3.22
2023-03-23T19:12:37.540Z,3.80
2023-03-23T19:15:25.078Z,4.10
2023-03-23T19:18:12.887Z,3.65
2023-03-23T19:23:51.404Z,3.80
2023-03-23T19:26:43.048Z,3.30
2023-03-23T19:29:30.578Z,3.67
2023-03-23T19:32:18.575Z,3.40
2023-03-23T19:35:07.124Z,3.43
2023-03-23T19:37:54.781Z,4.43
2023-03-23T19:40:49.129Z,4.20
2023-03-23T19:43:37.870Z,3.88
2023-03-23T19:46:28.328Z,3.70
2023-03-23T19:49:25.186Z,4.88
2023-03-23T19:52:14.546Z,4.13
2023-03-23T19:55:04.589Z,4.03
2023-03-23T19:57:52.170Z,3.87
2023-03-23T20:00:40.262Z,3.87
2023-03-23T20:03:28.404Z,4.70
2023-03-23T20:06:19.440Z,3.67
2023-03-23T20:09:07.725Z,3.87
2023-03-23T20:11:55.447Z,4.22
2023-03-23T20:14:45.513Z,4.63
2023-03-23T20:17:33.753Z,4.00
2023-03-23T20:20:21.390Z,4.03
2023-03-23T20:23:08.880Z,4.83
2023-03-23T20:26:04.262Z,3.73
2023-03-23T20:28:52.519Z,4.37
2023-03-23T20:31:45.223Z,4.93
2023-03-23T20:34:33.020Z,5.30
2023-03-23T20:37:21.005Z,4.37
2023-03-23T20:40:14.387Z,5.37
2023-03-23T20:43:03.788Z,5.18
2023-03-23T20:45:51.503Z,4.20
2023-03-23T20:48:40.357Z,4.33
2023-03-23T20:51:28.279Z,4.03
2023-03-23T20:54:17.842Z,4.23
2023-03-23T20:57:05.561Z,4.15
2023-03-23T20:59:53.661Z,4.17
2023-03-23T21:02:42.361Z,3.83
2023-03-23T21:05:30.038Z,3.87
2023-03-23T21:08:18.959Z,3.73
2023-03-23T21:11:09.766Z,3.67
2023-03-23T21:13:57.357Z,3.87
2023-03-23T21:16:45.440Z,3.10
2023-03-23T21:19:34.262Z,3.53
2023-03-23T21:22:22.990Z,3.80
2023-03-23T21:25:10.631Z,3.28
2023-03-23T21:27:58.169Z,3.47
2023-03-23T21:30:48.371Z,2.87
2023-03-23T21:33:36.087Z,3.67
2023-03-23T21:36:24.814Z,3.73
2023-03-23T21:39:12.315Z,3.20
2023-03-23T21:42:00.159Z,3.37
2023-03-23T21:44:48.751Z,3.77
2023-03-23T21:47:38.449Z,3.67
2023-03-23T21:50:26.148Z,3.80
2023-03-23T21:53:18.205Z,3.00
2023-03-23T21:56:10.322Z,3.53
2023-03-23T21:58:58.420Z,3.10
2023-03-23T22:01:46.296Z,3.50
2023-03-23T22:04:35.112Z,3.83
2023-03-23T22:07:24.120Z,3.97
2023-03-23T22:10:14.879Z,3.23
2023-03-23T22:13:02.393Z,4.33
2023-03-23T22:15:52.129Z,4.43
2023-03-23T22:18:43.522Z,4.30
2023-03-23T22:21:32.045Z,3.57
2023-03-23T22:24:19.731Z,3.90
2023-03-23T22:27:07.974Z,3.70
2023-03-23T22:29:55.840Z,4.77
2023-03-23T22:32:43.771Z,4.40
2023-03-23T22:35:33.843Z,4.80
2023-03-23T22:38:22.610Z,3.23
2023-03-23T22:41:25.228Z,3.67
2023-03-23T22:44:18.386Z,3.73
2023-03-23T22:47:06.738Z,4.40
2023-03-23T22:49:54.380Z,4.17
2023-03-23T22:52:42.013Z,3.90
2023-03-23T22:55:29.818Z,3.67
2023-03-23T22:58:20.265Z,4.90
2023-03-23T23:01:14.270Z,4.07
2023-03-23T23:04:03.011Z,4.30
2023-03-23T23:06:55.457Z,3.97
2023-03-23T23:09:51.604Z,3.73
2023-03-23T23:12:39.352Z,4.33
2023-03-23T23:15:27.863Z,4.43
2023-03-23T23:18:16.437Z,3.97
2023-03-23T23:21:15.605Z,3.47
2023-03-23T23:24:07.811Z,4.43
2023-03-23T23:26:55.861Z,3.93
2023-03-23T23:29:44.872Z,3.90
2023-03-23T23:32:34.112Z,3.67
2023-03-23T23:35:22.242Z,5.30
2023-03-23T23:38:12.757Z,4.27
2023-03-23T23:41:00.393Z,4.40
2023-03-23T23:43:48.117Z,3.17
2023-03-23T23:46:35.742Z,4.43
2023-03-23T23:49:28.771Z,3.70
2023-03-23T23:52:17.004Z,3.93
2023-03-23T23:55:08.059Z,4.17
2023-03-23T23:57:56.238Z,3.20
